sensor_id;sensor_type;location;lat;lon;timestamp;pressure;altitude;pressure_sealevel;temperature;humidity
65760;BME280;52496;51.082;5.066;2023-03-04T00:00:38;102575.47;;;5.17;90.60
65760;BME280;52496;51.082;5.066;2023-03-04T00:03:21;102575.47;;;5.17;90.89
65760;BME280;52496;51.082;5.066;2023-03-04T00:05:51;102575.47;;;5.17;90.91
65760;BME280;52496;51.082;5.066;2023-03-04T00:08:22;102572.94;;;5.15;90.68
65760;BME280;52496;51.082;5.066;2023-03-04T00:10:52;102580.06;;;5.15;90.65
65760;BME280;52496;51.082;5.066;2023-03-04T00:13:23;102573.88;;;5.14;90.68
65760;BME280;52496;51.082;5.066;2023-03-04T00:15:54;102574.84;;;5.13;90.68
65760;BME280;52496;51.082;5.066;2023-03-04T00:18:24;102575.69;;;5.14;90.72
65760;BME280;52496;51.082;5.066;2023-03-04T00:20:55;102575.69;;;5.14;90.92
65760;BME280;52496;51.082;5.066;2023-03-04T00:23:25;102576.66;;;5.13;91.17
65760;BME280;52496;51.082;5.066;2023-03-04T00:25:56;102570.59;;;5.11;91.25
65760;BME280;52496;51.082;5.066;2023-03-04T00:28:26;102564.44;;;5.10;91.27
65760;BME280;52496;51.082;5.066;2023-03-04T00:30:57;102571.56;;;5.10;91.13
65760;BME280;52496;51.082;5.066;2023-03-04T00:33:27;102575.19;;;5.09;92.08
65760;BME280;52496;51.082;5.066;2023-03-04T00:35:58;102567.31;;;5.07;92.36
65760;BME280;52496;51.082;5.066;2023-03-04T00:38:28;102567.44;;;5.05;91.87
65760;BME280;52496;51.082;5.066;2023-03-04T00:40:59;102566.69;;;5.03;92.21
65760;BME280;52496;51.082;5.066;2023-03-04T00:43:29;102567.53;;;5.04;92.50
65760;BME280;52496;51.082;5.066;2023-03-04T00:46:01;102571.16;;;5.03;92.46
65760;BME280;52496;51.082;5.066;2023-03-04T00:48:31;102564.13;;;5.02;92.70
65760;BME280;52496;51.082;5.066;2023-03-04T00:51:02;102570.31;;;5.02;92.84
65760;BME280;52496;51.082;5.066;2023-03-04T00:53:32;102565.22;;;4.99;93.51
65760;BME280;52496;51.082;5.066;2023-03-04T00:56:03;102566.91;;;5.00;93.73
65760;BME280;52496;51.082;5.066;2023-03-04T00:58:34;102564.34;;;4.99;94.28
65760;BME280;52496;51.082;5.066;2023-03-04T01:01:05;102571.56;;;4.97;93.94
65760;BME280;52496;51.082;5.066;2023-03-04T01:03:35;102566.34;;;4.95;94.21
65760;BME280;52496;51.082;5.066;2023-03-04T01:06:06;102565.63;;;4.93;94.69
65760;BME280;52496;51.082;5.066;2023-03-04T01:08:37;102559.38;;;4.94;95.88
65760;BME280;52496;51.082;5.066;2023-03-04T01:11:07;102557.88;;;4.90;95.28
65760;BME280;52496;51.082;5.066;2023-03-04T01:13:38;102560.53;;;4.90;95.18
65760;BME280;52496;51.082;5.066;2023-03-04T01:16:09;102561.47;;;4.89;94.48
65760;BME280;52496;51.082;5.066;2023-03-04T01:18:40;102560.53;;;4.90;94.45
65760;BME280;52496;51.082;5.066;2023-03-04T01:21:11;102556.94;;;4.91;94.77
65760;BME280;52496;51.082;5.066;2023-03-04T01:23:41;102556.09;;;4.91;95.25
65760;BME280;52496;51.082;5.066;2023-03-04T01:26:12;102557.88;;;4.90;94.95
65760;BME280;52496;51.082;5.066;2023-03-04T01:28:42;102563.28;;;4.89;94.90
65760;BME280;52496;51.082;5.066;2023-03-04T01:31:13;102554.47;;;4.88;95.40
65760;BME280;52496;51.082;5.066;2023-03-04T01:33:44;102550.25;;;4.86;96.13
65760;BME280;52496;51.082;5.066;2023-03-04T01:36:14;102552.13;;;4.83;96.16
65760;BME280;52496;51.082;5.066;2023-03-04T01:38:45;102553.94;;;4.83;95.92
65760;BME280;52496;51.082;5.066;2023-03-04T01:41:18;102541.66;;;4.82;95.85
65760;BME280;52496;51.082;5.066;2023-03-04T01:43:51;102544.41;;;4.80;96.34
65760;BME280;52496;51.082;5.066;2023-03-04T01:46:23;102542.72;;;4.79;95.84
65760;BME280;52496;51.082;5.066;2023-03-04T01:48:54;102542.63;;;4.81;95.80
65760;BME280;52496;51.082;5.066;2023-03-04T01:51:25;102543.47;;;4.81;95.30
65760;BME280;52496;51.082;5.066;2023-03-04T01:53:55;102528.41;;;4.82;95.37
65760;BME280;52496;51.082;5.066;2023-03-04T01:56:35;102524.69;;;4.85;95.49
65760;BME280;52496;51.082;5.066;2023-03-04T02:01:46;102525.53;;;4.85;96.19
65760;BME280;52496;51.082;5.066;2023-03-04T02:04:19;102529.16;;;4.84;96.48
65760;BME280;52496;51.082;5.066;2023-03-04T02:06:51;102527.44;;;4.83;96.57
65760;BME280;52496;51.082;5.066;2023-03-04T02:09:22;102518.56;;;4.84;97.28
65760;BME280;52496;51.082;5.066;2023-03-04T02:11:53;102515.16;;;4.82;97.90
65760;BME280;52496;51.082;5.066;2023-03-04T02:14:24;102518.00;;;4.79;98.54
65760;BME280;52496;51.082;5.066;2023-03-04T02:16:55;102508.38;;;4.78;97.26
65760;BME280;52496;51.082;5.066;2023-03-04T02:19:48;102500.28;;;4.79;96.91
65760;BME280;52496;51.082;5.066;2023-03-04T02:22:20;102503.69;;;4.81;96.78
65760;BME280;52496;51.082;5.066;2023-03-04T02:24:59;102493.94;;;4.82;96.98
65760;BME280;52496;51.082;5.066;2023-03-04T02:27:32;102489.47;;;4.82;97.22
65760;BME280;52496;51.082;5.066;2023-03-04T02:30:04;102500.09;;;4.82;96.45
65760;BME280;52496;51.082;5.066;2023-03-04T02:32:35;102491.06;;;4.85;96.94
65760;BME280;52496;51.082;5.066;2023-03-04T02:35:07;102499.88;;;4.86;97.26
65760;BME280;52496;51.082;5.066;2023-03-04T02:37:43;102493.72;;;4.85;96.84
65760;BME280;52496;51.082;5.066;2023-03-04T02:40:32;102486.63;;;4.86;97.13
65760;BME280;52496;51.082;5.066;2023-03-04T02:43:03;102485.78;;;4.85;97.36
65760;BME280;52496;51.082;5.066;2023-03-04T02:45:35;102483.13;;;4.85;97.59
65760;BME280;52496;51.082;5.066;2023-03-04T02:48:07;102483.97;;;4.86;97.49
65760;BME280;52496;51.082;5.066;2023-03-04T02:50:44;102480.47;;;4.85;97.28
65760;BME280;52496;51.082;5.066;2023-03-04T02:53:16;102478.78;;;4.84;97.80
65760;BME280;52496;51.082;5.066;2023-03-04T02:55:47;102477.81;;;4.85;97.73
65760;BME280;52496;51.082;5.066;2023-03-04T02:58:18;102484.81;;;4.86;97.93
65760;BME280;52496;51.082;5.066;2023-03-04T03:00:48;102477.59;;;4.88;97.75
65760;BME280;52496;51.082;5.066;2023-03-04T03:03:19;102478.44;;;4.89;97.56
65760;BME280;52496;51.082;5.066;2023-03-04T03:05:49;102471.25;;;4.91;97.53
65760;BME280;52496;51.082;5.066;2023-03-04T03:08:20;102473.78;;;4.92;97.28
65760;BME280;52496;51.082;5.066;2023-03-04T03:10:51;102477.06;;;4.96;97.13
65760;BME280;52496;51.082;5.066;2023-03-04T03:13:21;102474.19;;;4.99;96.81
65760;BME280;52496;51.082;5.066;2023-03-04T03:15:52;102471.44;;;5.00;96.80
65760;BME280;52496;51.082;5.066;2023-03-04T03:18:22;102469.53;;;5.02;96.58
65760;BME280;52496;51.082;5.066;2023-03-04T03:20:53;102474.84;;;5.02;96.31
65760;BME280;52496;51.082;5.066;2023-03-04T03:23:24;102467.59;;;5.04;95.55
65760;BME280;52496;51.082;5.066;2023-03-04T03:25:54;102471.97;;;5.05;95.76
65760;BME280;52496;51.082;5.066;2023-03-04T03:28:25;102468.34;;;5.06;95.67
65760;BME280;52496;51.082;5.066;2023-03-04T03:30:55;102473.66;;;5.06;95.53
65760;BME280;52496;51.082;5.066;2023-03-04T03:33:26;102464.75;;;5.07;95.49
65760;BME280;52496;51.082;5.066;2023-03-04T03:35:57;102462.09;;;5.07;96.10
65760;BME280;52496;51.082;5.066;2023-03-04T03:38:28;102465.69;;;5.06;96.14
65760;BME280;52496;51.082;5.066;2023-03-04T03:40:58;102464.75;;;5.07;96.12
65760;BME280;52496;51.082;5.066;2023-03-04T03:43:29;102467.38;;;5.07;96.53
65760;BME280;52496;51.082;5.066;2023-03-04T03:46:00;102478.97;;;5.06;96.68
65760;BME280;52496;51.082;5.066;2023-03-04T03:48:31;102470.16;;;5.06;96.87
65760;BME280;52496;51.082;5.066;2023-03-04T03:51:01;102462.31;;;5.04;96.80
65760;BME280;52496;51.082;5.066;2023-03-04T03:53:32;102459.56;;;5.06;96.55
65760;BME280;52496;51.082;5.066;2023-03-04T03:56:03;102464.03;;;5.05;96.69
65760;BME280;52496;51.082;5.066;2023-03-04T03:58:34;102461.25;;;5.07;96.40
65760;BME280;52496;51.082;5.066;2023-03-04T04:01:04;102465.69;;;5.06;96.87
65760;BME280;52496;51.082;5.066;2023-03-04T04:03:35;102454.13;;;5.07;97.11
65760;BME280;52496;51.082;5.066;2023-03-04T04:06:06;102463.06;;;5.06;97.01
65760;BME280;52496;51.082;5.066;2023-03-04T04:08:37;102459.44;;;5.07;97.51
65760;BME280;52496;51.082;5.066;2023-03-04T04:11:11;102462.09;;;5.07;97.59
65760;BME280;52496;51.082;5.066;2023-03-04T04:13:42;102473.66;;;5.06;97.96
65760;BME280;52496;51.082;5.066;2023-03-04T04:16:13;102470.16;;;5.06;98.01
65760;BME280;52496;51.082;5.066;2023-03-04T04:18:43;102473.75;;;5.05;98.22
65760;BME280;52496;51.082;5.066;2023-03-04T04:21:14;102474.84;;;5.02;98.59
65760;BME280;52496;51.082;5.066;2023-03-04T04:23:45;102474.84;;;5.02;98.47
65760;BME280;52496;51.082;5.066;2023-03-04T04:26:16;102471.44;;;5.00;98.12
65760;BME280;52496;51.082;5.066;2023-03-04T04:28:46;102465.06;;;5.03;98.05
65760;BME280;52496;51.082;5.066;2023-03-04T04:31:17;102478.44;;;5.01;98.35
65760;BME280;52496;51.082;5.066;2023-03-04T04:33:47;102478.44;;;5.01;98.20
65760;BME280;52496;51.082;5.066;2023-03-04T04:36:18;102475.69;;;5.03;97.87
65760;BME280;52496;51.082;5.066;2023-03-04T04:38:49;102471.22;;;5.03;97.18
65760;BME280;52496;51.082;5.066;2023-03-04T04:41:25;102472.81;;;5.06;97.54
65760;BME280;52496;51.082;5.066;2023-03-04T04:43:57;102483.31;;;5.07;98.01
65760;BME280;52496;51.082;5.066;2023-03-04T04:46:28;102476.31;;;5.06;97.92
65760;BME280;52496;51.082;5.066;2023-03-04T04:48:59;102478.84;;;5.08;98.12
65760;BME280;52496;51.082;5.066;2023-03-04T04:51:30;102477.16;;;5.07;98.09
65760;BME280;52496;51.082;5.066;2023-03-04T04:54:01;102481.63;;;5.06;98.16
65760;BME280;52496;51.082;5.066;2023-03-04T04:56:33;102483.44;;;5.06;98.50
65760;BME280;52496;51.082;5.066;2023-03-04T04:59:05;102479.06;;;5.05;98.84
65760;BME280;52496;51.082;5.066;2023-03-04T05:01:37;102485.31;;;5.04;98.74
65760;BME280;52496;51.082;5.066;2023-03-04T05:04:08;102487.97;;;5.04;98.82
65760;BME280;52496;51.082;5.066;2023-03-04T05:06:39;102487.13;;;5.03;98.83
65760;BME280;52496;51.082;5.066;2023-03-04T05:09:09;102485.31;;;5.04;99.05
65760;BME280;52496;51.082;5.066;2023-03-04T05:11:41;102480.16;;;5.02;98.97
65760;BME280;52496;51.082;5.066;2023-03-04T05:14:11;102481.09;;;5.01;99.23
65760;BME280;52496;51.082;5.066;2023-03-04T05:16:42;102488.19;;;5.01;99.64
65760;BME280;52496;51.082;5.066;2023-03-04T05:19:12;102484.78;;;4.99;99.13
65760;BME280;52496;51.082;5.066;2023-03-04T05:21:43;102485.66;;;4.99;99.69
65760;BME280;52496;51.082;5.066;2023-03-04T05:24:14;102489.25;;;4.98;99.96
65760;BME280;52496;51.082;5.066;2023-03-04T05:26:44;102489.25;;;4.98;100.00
65760;BME280;52496;51.082;5.066;2023-03-04T05:29:15;102479.69;;;4.96;100.00
65760;BME280;52496;51.082;5.066;2023-03-04T05:31:46;102485.88;;;4.96;100.00
65760;BME280;52496;51.082;5.066;2023-03-04T05:34:16;102472.72;;;4.95;100.00
65760;BME280;52496;51.082;5.066;2023-03-04T05:36:47;102480.78;;;4.93;100.00
65760;BME280;52496;51.082;5.066;2023-03-04T05:39:17;102482.47;;;4.94;100.00
65760;BME280;52496;51.082;5.066;2023-03-04T05:41:48;102475.50;;;4.93;99.07
65760;BME280;52496;51.082;5.066;2023-03-04T05:44:18;102476.34;;;4.94;99.87
65760;BME280;52496;51.082;5.066;2023-03-04T05:46:49;102479.81;;;4.94;98.88
65760;BME280;52496;51.082;5.066;2023-03-04T05:49:20;102480.56;;;4.96;98.77
65760;BME280;52496;51.082;5.066;2023-03-04T05:51:50;102483.94;;;4.98;98.39
65760;BME280;52496;51.082;5.066;2023-03-04T05:54:21;102485.66;;;4.99;97.73
65760;BME280;52496;51.082;5.066;2023-03-04T05:56:51;102492.66;;;5.00;97.70
65760;BME280;52496;51.082;5.066;2023-03-04T05:59:22;102495.19;;;5.02;97.97
65760;BME280;52496;51.082;5.066;2023-03-04T06:01:53;102488.09;;;5.02;97.70
65760;BME280;52496;51.082;5.066;2023-03-04T06:04:23;102488.19;;;5.01;97.51
65760;BME280;52496;51.082;5.066;2023-03-04T06:06:54;102493.41;;;5.02;96.95
65760;BME280;52496;51.082;5.066;2023-03-04T06:09:25;102486.16;;;5.04;97.48
65760;BME280;52496;51.082;5.066;2023-03-04T06:11:55;102487.13;;;5.03;97.01
65760;BME280;52496;51.082;5.066;2023-03-04T06:14:26;102491.59;;;5.03;97.23
65760;BME280;52496;51.082;5.066;2023-03-04T06:16:56;102494.13;;;5.04;97.36
65760;BME280;52496;51.082;5.066;2023-03-04T06:19:27;102488.81;;;5.04;97.44
65760;BME280;52496;51.082;5.066;2023-03-04T06:21:58;102487.00;;;5.05;97.71
65760;BME280;52496;51.082;5.066;2023-03-04T06:24:29;102498.50;;;5.05;97.72
65760;BME280;52496;51.082;5.066;2023-03-04T06:26:59;102499.44;;;5.04;97.64
65760;BME280;52496;51.082;5.066;2023-03-04T06:29:30;102502.06;;;5.04;98.37
65760;BME280;52496;51.082;5.066;2023-03-04T06:32:01;102492.44;;;5.03;98.07
65760;BME280;52496;51.082;5.066;2023-03-04T06:34:31;102500.41;;;5.03;98.10
65760;BME280;52496;51.082;5.066;2023-03-04T06:37:03;102500.47;;;5.02;98.68
65760;BME280;52496;51.082;5.066;2023-03-04T06:39:33;102499.66;;;5.01;98.31
65760;BME280;52496;51.082;5.066;2023-03-04T06:42:04;102504.84;;;5.03;97.90
65760;BME280;52496;51.082;5.066;2023-03-04T06:44:34;102504.72;;;5.04;98.10
65760;BME280;52496;51.082;5.066;2023-03-04T06:47:05;102510.88;;;5.05;98.67
65760;BME280;52496;51.082;5.066;2023-03-04T06:49:36;102510.03;;;5.04;97.54
65760;BME280;52496;51.082;5.066;2023-03-04T06:52:06;102508.97;;;5.07;97.67
65760;BME280;52496;51.082;5.066;2023-03-04T06:54:45;102516.84;;;5.09;98.24
65760;BME280;52496;51.082;5.066;2023-03-04T06:57:16;102517.56;;;5.11;98.01
65760;BME280;52496;51.082;5.066;2023-03-04T06:59:47;102520.22;;;5.11;98.04
65760;BME280;52496;51.082;5.066;2023-03-04T07:02:17;102521.81;;;5.13;98.06
65760;BME280;52496;51.082;5.066;2023-03-04T07:04:48;102521.72;;;5.15;98.15
65760;BME280;52496;51.082;5.066;2023-03-04T07:07:20;102523.41;;;5.16;98.46
65760;BME280;52496;51.082;5.066;2023-03-04T07:09:51;102534.00;;;5.16;97.97
65760;BME280;52496;51.082;5.066;2023-03-04T07:12:28;102532.09;;;5.18;97.96
65760;BME280;52496;51.082;5.066;2023-03-04T07:14:59;102536.44;;;5.19;98.38
65760;BME280;52496;51.082;5.066;2023-03-04T07:17:30;102538.13;;;5.20;98.74
65760;BME280;52496;51.082;5.066;2023-03-04T07:20:03;102531.91;;;5.21;98.51
65760;BME280;52496;51.082;5.066;2023-03-04T07:22:41;102539.63;;;5.24;98.47
65760;BME280;52496;51.082;5.066;2023-03-04T07:25:12;102537.69;;;5.26;98.84
65760;BME280;52496;51.082;5.066;2023-03-04T07:27:42;102541.22;;;5.26;98.20
65760;BME280;52496;51.082;5.066;2023-03-04T07:30:13;102545.44;;;5.29;98.17
65760;BME280;52496;51.082;5.066;2023-03-04T07:32:43;102539.91;;;5.32;98.27
65760;BME280;52496;51.082;5.066;2023-03-04T07:35:14;102541.63;;;5.33;98.09
65760;BME280;52496;51.082;5.066;2023-03-04T07:37:45;102538.75;;;5.36;97.75
65760;BME280;52496;51.082;5.066;2023-03-04T07:40:15;102543.94;;;5.38;98.40
65760;BME280;52496;51.082;5.066;2023-03-04T07:42:49;102542.88;;;5.40;97.64
65760;BME280;52496;51.082;5.066;2023-03-04T07:45:21;102549.78;;;5.43;98.00
65760;BME280;52496;51.082;5.066;2023-03-04T07:47:52;102556.69;;;5.45;97.28
65760;BME280;52496;51.082;5.066;2023-03-04T07:50:23;102558.38;;;5.46;97.31
65760;BME280;52496;51.082;5.066;2023-03-04T07:52:54;102559.00;;;5.50;97.79
65760;BME280;52496;51.082;5.066;2023-03-04T07:55:24;102557.09;;;5.52;97.76
65760;BME280;52496;51.082;5.066;2023-03-04T07:57:55;102555.19;;;5.54;97.69
65760;BME280;52496;51.082;5.066;2023-03-04T08:00:25;102552.41;;;5.56;97.87
65760;BME280;52496;51.082;5.066;2023-03-04T08:02:56;102563.78;;;5.58;98.24
65760;BME280;52496;51.082;5.066;2023-03-04T08:05:26;102563.56;;;5.61;98.15
65760;BME280;52496;51.082;5.066;2023-03-04T08:07:57;102560.69;;;5.64;98.69
65760;BME280;52496;51.082;5.066;2023-03-04T08:10:28;102557.91;;;5.65;98.35
65760;BME280;52496;51.082;5.066;2023-03-04T08:12:58;102562.16;;;5.68;98.78
65760;BME280;52496;51.082;5.066;2023-03-04T08:15:29;102564.69;;;5.69;98.79
65760;BME280;52496;51.082;5.066;2023-03-04T08:18:02;102560.00;;;5.73;99.20
65760;BME280;52496;51.082;5.066;2023-03-04T08:20:32;102568.47;;;5.78;99.37
65760;BME280;52496;51.082;5.066;2023-03-04T08:23:03;102580.38;;;5.85;99.51
65760;BME280;52496;51.082;5.066;2023-03-04T08:25:33;102579.09;;;5.91;98.77
65760;BME280;52496;51.082;5.066;2023-03-04T08:28:04;102581.63;;;5.92;98.06
65760;BME280;52496;51.082;5.066;2023-03-04T08:30:35;102582.50;;;5.93;98.11
65760;BME280;52496;51.082;5.066;2023-03-04T08:33:06;102574.44;;;5.94;98.35
65760;BME280;52496;51.082;5.066;2023-03-04T08:35:38;102580.34;;;5.98;98.96
65760;BME280;52496;51.082;5.066;2023-03-04T08:38:09;102577.38;;;6.03;99.00
65760;BME280;52496;51.082;5.066;2023-03-04T08:40:39;102588.16;;;6.12;99.34
65760;BME280;52496;51.082;5.066;2023-03-04T08:43:10;102583.03;;;6.22;98.61
65760;BME280;52496;51.082;5.066;2023-03-04T08:45:41;102582.34;;;6.31;98.75
65760;BME280;52496;51.082;5.066;2023-03-04T08:48:11;102590.38;;;6.42;99.48
65760;BME280;52496;51.082;5.066;2023-03-04T08:50:43;102582.66;;;6.51;98.14
65760;BME280;52496;51.082;5.066;2023-03-04T08:53:15;102580.16;;;6.60;99.59
65760;BME280;52496;51.082;5.066;2023-03-04T08:55:46;102578.78;;;6.79;100.00
65760;BME280;52496;51.082;5.066;2023-03-04T08:58:17;102576.75;;;7.05;100.00
65760;BME280;52496;51.082;5.066;2023-03-04T09:00:48;102576.16;;;7.24;99.39
65760;BME280;52496;51.082;5.066;2023-03-04T09:03:20;102567.59;;;7.31;100.00
65760;BME280;52496;51.082;5.066;2023-03-04T09:05:51;102571.44;;;7.39;98.87
65760;BME280;52496;51.082;5.066;2023-03-04T09:08:21;102564.19;;;7.41;100.00
65760;BME280;52496;51.082;5.066;2023-03-04T09:10:53;102570.25;;;7.43;98.06
65760;BME280;52496;51.082;5.066;2023-03-04T09:13:25;102565.66;;;7.33;98.28
65760;BME280;52496;51.082;5.066;2023-03-04T09:15:57;102569.75;;;7.26;98.64
65760;BME280;52496;51.082;5.066;2023-03-04T09:18:28;102574.13;;;7.16;97.39
65760;BME280;52496;51.082;5.066;2023-03-04T09:20:59;102565.28;;;7.04;98.54
65760;BME280;52496;51.082;5.066;2023-03-04T09:23:29;102565.75;;;6.98;98.61
65760;BME280;52496;51.082;5.066;2023-03-04T09:26:00;102566.47;;;6.89;97.61
65760;BME280;52496;51.082;5.066;2023-03-04T09:28:31;102573.09;;;6.83;98.08
65760;BME280;52496;51.082;5.066;2023-03-04T09:31:01;102569.81;;;6.80;98.60
65760;BME280;52496;51.082;5.066;2023-03-04T09:33:40;102575.97;;;6.80;99.57
65760;BME280;52496;51.082;5.066;2023-03-04T09:36:13;102572.59;;;6.78;98.76
65760;BME280;52496;51.082;5.066;2023-03-04T09:38:45;102572.13;;;6.84;99.09
65760;BME280;52496;51.082;5.066;2023-03-04T09:41:19;102576.84;;;6.92;99.03
65760;BME280;52496;51.082;5.066;2023-03-04T09:43:52;102572.75;;;6.99;97.21
65760;BME280;52496;51.082;5.066;2023-03-04T09:46:35;102577.72;;;7.15;95.63
65760;BME280;52496;51.082;5.066;2023-03-04T09:49:10;102567.22;;;7.36;96.79
65760;BME280;52496;51.082;5.066;2023-03-04T09:54:29;102568.50;;;7.87;95.11
65760;BME280;52496;51.082;5.066;2023-03-04T10:08:37;102555.81;;;8.55;89.92
65760;BME280;52496;51.082;5.066;2023-03-04T10:11:39;102555.53;;;8.79;86.10
65760;BME280;52496;51.082;5.066;2023-03-04T10:14:33;102551.97;;;8.89;86.15
65760;BME280;52496;51.082;5.066;2023-03-04T10:20:46;102545.94;;;9.18;84.18
65760;BME280;52496;51.082;5.066;2023-03-04T10:23:22;102539.72;;;9.08;82.80
65760;BME280;52496;51.082;5.066;2023-03-04T10:25:54;102561.81;;;8.89;84.15
65760;BME280;52496;51.082;5.066;2023-03-04T10:28:26;102548.06;;;8.72;84.57
65760;BME280;52496;51.082;5.066;2023-03-04T10:31:03;102544.50;;;8.62;85.37
65760;BME280;52496;51.082;5.066;2023-03-04T10:33:38;102554.97;;;8.54;85.38
65760;BME280;52496;51.082;5.066;2023-03-04T10:39:10;102535.81;;;8.28;87.79
65760;BME280;52496;51.082;5.066;2023-03-04T10:41:43;102545.22;;;8.32;89.30
65760;BME280;52496;51.082;5.066;2023-03-04T10:44:16;102531.91;;;8.32;88.19
65760;BME280;52496;51.082;5.066;2023-03-04T10:46:48;102542.28;;;8.35;89.37
65760;BME280;52496;51.082;5.066;2023-03-04T10:49:19;102540.13;;;8.40;87.90
65760;BME280;52496;51.082;5.066;2023-03-04T10:52:18;102539.22;;;8.51;88.90
65760;BME280;52496;51.082;5.066;2023-03-04T10:54:56;102531.53;;;8.79;86.81
65760;BME280;52496;51.082;5.066;2023-03-04T10:57:31;102525.66;;;9.06;86.94
65760;BME280;52496;51.082;5.066;2023-03-04T11:02:35;102522.97;;;9.46;84.05
65760;BME280;52496;51.082;5.066;2023-03-04T11:05:21;102533.13;;;9.52;83.61
65760;BME280;52496;51.082;5.066;2023-03-04T11:07:58;102533.84;;;9.54;83.59
65760;BME280;52496;51.082;5.066;2023-03-04T11:10:39;102526.66;;;9.45;83.48
65760;BME280;52496;51.082;5.066;2023-03-04T11:16:03;102531.63;;;9.19;83.65
65760;BME280;52496;51.082;5.066;2023-03-04T11:18:49;102527.03;;;9.00;84.55
65760;BME280;52496;51.082;5.066;2023-03-04T11:21:24;102527.38;;;8.86;84.42
65760;BME280;52496;51.082;5.066;2023-03-04T11:24:00;102524.06;;;8.72;85.11
65760;BME280;52496;51.082;5.066;2023-03-04T11:29:52;102518.63;;;8.53;86.95
65760;BME280;52496;51.082;5.066;2023-03-04T11:32:30;102514.25;;;8.52;87.66
65760;BME280;52496;51.082;5.066;2023-03-04T11:35:37;102513.28;;;8.53;88.32
65760;BME280;52496;51.082;5.066;2023-03-04T11:38:18;102513.28;;;8.53;86.47
65760;BME280;52496;51.082;5.066;2023-03-04T11:40:56;102497.53;;;8.50;88.05
65760;BME280;52496;51.082;5.066;2023-03-04T11:43:38;102492.56;;;8.66;87.34
65760;BME280;52496;51.082;5.066;2023-03-04T11:57:55;102487.16;;;9.08;87.11
65760;BME280;52496;51.082;5.066;2023-03-04T12:03:56;102471.81;;;9.31;86.99
65760;BME280;52496;51.082;5.066;2023-03-04T12:06:57;102466.50;;;9.51;86.87
65760;BME280;52496;51.082;5.066;2023-03-04T12:15:46;102462.31;;;9.68;84.07
65760;BME280;52496;51.082;5.066;2023-03-04T12:18:40;102457.41;;;9.73;84.20
65760;BME280;52496;51.082;5.066;2023-03-04T12:24:38;102440.13;;;9.96;82.92
65760;BME280;52496;51.082;5.066;2023-03-04T12:35:13;102436.00;;;10.31;82.58
65760;BME280;52496;51.082;5.066;2023-03-04T12:40:57;102431.09;;;10.17;81.59
65760;BME280;52496;51.082;5.066;2023-03-04T12:49:45;102415.50;;;9.63;83.07
65760;BME280;52496;51.082;5.066;2023-03-04T12:55:37;102407.31;;;9.55;84.51
65760;BME280;52496;51.082;5.066;2023-03-04T12:58:18;102404.09;;;9.61;85.00
65760;BME280;52496;51.082;5.066;2023-03-04T13:03:42;102398.34;;;9.66;84.02
65760;BME280;52496;51.082;5.066;2023-03-04T13:09:52;102388.38;;;9.68;83.72
65760;BME280;52496;51.082;5.066;2023-03-04T13:12:25;102389.50;;;9.65;83.85
65760;BME280;52496;51.082;5.066;2023-03-04T13:17:52;102382.59;;;9.53;84.29
65760;BME280;52496;51.082;5.066;2023-03-04T13:28:23;102391.91;;;8.99;91.69
65760;BME280;52496;51.082;5.066;2023-03-04T13:36:25;102380.31;;;8.79;95.00
65760;BME280;52496;51.082;5.066;2023-03-04T13:41:51;102372.50;;;8.87;95.64
65760;BME280;52496;51.082;5.066;2023-03-04T13:47:32;102367.19;;;8.97;95.00
65760;BME280;52496;51.082;5.066;2023-03-04T13:50:38;102366.63;;;9.03;94.91
65760;BME280;52496;51.082;5.066;2023-03-04T13:53:46;102368.47;;;9.12;95.48
65760;BME280;52496;51.082;5.066;2023-03-04T14:04:27;102363.56;;;9.08;93.64
65760;BME280;52496;51.082;5.066;2023-03-04T14:07:00;102358.22;;;9.08;94.38
65760;BME280;52496;51.082;5.066;2023-03-04T14:09:34;102353.72;;;9.08;94.73
65760;BME280;52496;51.082;5.066;2023-03-04T14:12:13;102346.44;;;9.10;94.85
65760;BME280;52496;51.082;5.066;2023-03-04T14:14:49;102350.63;;;9.13;95.29
65760;BME280;52496;51.082;5.066;2023-03-04T14:17:24;102341.09;;;9.10;93.49
65760;BME280;52496;51.082;5.066;2023-03-04T14:19:56;102346.72;;;9.07;94.02
65760;BME280;52496;51.082;5.066;2023-03-04T14:22:33;102345.28;;;9.03;94.80
65760;BME280;52496;51.082;5.066;2023-03-04T14:27:47;102336.59;;;9.01;94.54
65760;BME280;52496;51.082;5.066;2023-03-04T14:30:24;102334.88;;;9.00;94.07
65760;BME280;52496;51.082;5.066;2023-03-04T14:32:57;102334.31;;;8.96;93.66
65760;BME280;52496;51.082;5.066;2023-03-04T14:35:31;102334.75;;;8.92;94.79
65760;BME280;52496;51.082;5.066;2023-03-04T14:38:15;102327.84;;;8.89;94.64
65760;BME280;52496;51.082;5.066;2023-03-04T14:40:51;102325.31;;;8.88;95.47
65760;BME280;52496;51.082;5.066;2023-03-04T14:43:22;102322.22;;;8.83;95.38
65760;BME280;52496;51.082;5.066;2023-03-04T14:45:56;102318.84;;;8.81;95.64
65760;BME280;52496;51.082;5.066;2023-03-04T14:48:30;102312.09;;;8.77;96.73
65760;BME280;52496;51.082;5.066;2023-03-04T14:51:01;102309.28;;;8.78;96.57
65760;BME280;52496;51.082;5.066;2023-03-04T14:53:32;102308.16;;;8.71;96.80
65760;BME280;52496;51.082;5.066;2023-03-04T14:56:06;102306.88;;;8.65;97.92
65760;BME280;52496;51.082;5.066;2023-03-04T14:58:38;102307.41;;;8.59;98.80
65760;BME280;52496;51.082;5.066;2023-03-04T15:01:22;102297.41;;;8.52;100.00
65760;BME280;52496;51.082;5.066;2023-03-04T15:04:08;102294.31;;;8.46;100.00
65760;BME280;52496;51.082;5.066;2023-03-04T15:06:53;102292.03;;;8.42;100.00
65760;BME280;52496;51.082;5.066;2023-03-04T15:09:24;102288.66;;;8.40;100.00
65760;BME280;52496;51.082;5.066;2023-03-04T15:12:05;102290.38;;;8.41;100.00
65760;BME280;52496;51.082;5.066;2023-03-04T15:14:48;102292.00;;;8.32;100.00
65760;BME280;52496;51.082;5.066;2023-03-04T15:17:38;102290.13;;;8.23;100.00
65760;BME280;52496;51.082;5.066;2023-03-04T15:20:21;102282.25;;;8.21;100.00
65760;BME280;52496;51.082;5.066;2023-03-04T15:25:27;102282.13;;;8.23;100.00
65760;BME280;52496;51.082;5.066;2023-03-04T15:28:02;102283.22;;;8.20;100.00
65760;BME280;52496;51.082;5.066;2023-03-04T15:30:33;102277.63;;;8.23;100.00